sensor_id;sensor_type;location;lat;lon;timestamp;P1;durP1;ratioP1;P2;durP2;ratioP2
36839;SDS011;24406;51.640;9.566;2022-07-22T00:01:04;8.27;;;5.35;;
36839;SDS011;24406;51.640;9.566;2022-07-22T00:06:07;9.15;;;4.50;;
36839;SDS011;24406;51.640;9.566;2022-07-22T00:11:08;5.80;;;5.28;;
36839;SDS011;24406;51.640;9.566;2022-07-22T00:16:10;6.68;;;4.80;;
36839;SDS011;24406;51.640;9.566;2022-07-22T00:21:13;5.18;;;4.22;;
36839;SDS011;24406;51.640;9.566;2022-07-22T00:26:14;5.18;;;3.78;;
36839;SDS011;24406;51.640;9.566;2022-07-22T00:31:16;8.05;;;4.15;;
36839;SDS011;24406;51.640;9.566;2022-07-22T00:36:18;4.47;;;3.60;;
36839;SDS011;24406;51.640;9.566;2022-07-22T00:41:20;5.95;;;4.25;;
36839;SDS011;24406;51.640;9.566;2022-07-22T00:46:22;4.22;;;3.35;;
36839;SDS011;24406;51.640;9.566;2022-07-22T00:51:27;3.80;;;3.00;;
36839;SDS011;24406;51.640;9.566;2022-07-22T00:56:30;5.38;;;2.92;;
36839;SDS011;24406;51.640;9.566;2022-07-22T01:01:31;3.35;;;2.85;;
36839;SDS011;24406;51.640;9.566;2022-07-22T01:06:34;5.68;;;2.88;;
36839;SDS011;24406;51.640;9.566;2022-07-22T01:11:37;4.97;;;2.53;;
36839;SDS011;24406;51.640;9.566;2022-07-22T01:16:39;2.90;;;2.70;;
36839;SDS011;24406;51.640;9.566;2022-07-22T01:21:43;6.45;;;2.92;;
36839;SDS011;24406;51.640;9.566;2022-07-22T01:26:45;4.00;;;2.70;;
36839;SDS011;24406;51.640;9.566;2022-07-22T01:31:46;4.97;;;2.95;;
36839;SDS011;24406;51.640;9.566;2022-07-22T01:36:49;3.58;;;2.75;;
36839;SDS011;24406;51.640;9.566;2022-07-22T01:41:51;3.92;;;2.83;;
36839;SDS011;24406;51.640;9.566;2022-07-22T01:46:53;3.83;;;2.58;;
36839;SDS011;24406;51.640;9.566;2022-07-22T01:51:58;4.63;;;2.78;;
36839;SDS011;24406;51.640;9.566;2022-07-22T01:57:00;5.07;;;2.45;;
36839;SDS011;24406;51.640;9.566;2022-07-22T02:02:02;2.75;;;2.55;;
36839;SDS011;24406;51.640;9.566;2022-07-22T02:07:06;2.30;;;2.10;;
36839;SDS011;24406;51.640;9.566;2022-07-22T02:12:07;2.40;;;2.20;;
36839;SDS011;24406;51.640;9.566;2022-07-22T02:17:15;2.40;;;2.17;;
36839;SDS011;24406;51.640;9.566;2022-07-22T02:22:18;4.00;;;2.17;;
36839;SDS011;24406;51.640;9.566;2022-07-22T02:27:21;5.78;;;1.88;;
36839;SDS011;24406;51.640;9.566;2022-07-22T02:32:22;2.25;;;1.92;;
36839;SDS011;24406;51.640;9.566;2022-07-22T02:37:25;1.73;;;1.42;;
36839;SDS011;24406;51.640;9.566;2022-07-22T02:42:27;2.88;;;1.88;;
36839;SDS011;24406;51.640;9.566;2022-07-22T02:47:28;1.98;;;1.88;;
36839;SDS011;24406;51.640;9.566;2022-07-22T02:52:31;1.65;;;1.55;;
36839;SDS011;24406;51.640;9.566;2022-07-22T02:57:35;1.65;;;1.20;;
36839;SDS011;24406;51.640;9.566;2022-07-22T03:02:37;1.52;;;1.00;;
36839;SDS011;24406;51.640;9.566;2022-07-22T03:07:40;2.88;;;1.00;;
36839;SDS011;24406;51.640;9.566;2022-07-22T03:12:43;1.15;;;0.88;;
36839;SDS011;24406;51.640;9.566;2022-07-22T03:17:45;0.93;;;0.90;;
36839;SDS011;24406;51.640;9.566;2022-07-22T03:22:48;1.50;;;0.88;;
36839;SDS011;24406;51.640;9.566;2022-07-22T03:27:49;2.55;;;0.85;;
36839;SDS011;24406;51.640;9.566;2022-07-22T03:32:51;4.47;;;0.98;;
36839;SDS011;24406;51.640;9.566;2022-07-22T03:37:56;0.60;;;0.60;;
36839;SDS011;24406;51.640;9.566;2022-07-22T03:42:59;1.48;;;0.75;;
36839;SDS011;24406;51.640;9.566;2022-07-22T03:48:00;1.02;;;0.60;;
36839;SDS011;24406;51.640;9.566;2022-07-22T03:53:09;0.63;;;0.60;;
36839;SDS011;24406;51.640;9.566;2022-07-22T03:58:13;0.55;;;0.55;;
36839;SDS011;24406;51.640;9.566;2022-07-22T04:03:18;1.90;;;0.70;;
36839;SDS011;24406;51.640;9.566;2022-07-22T04:08:36;0.68;;;0.68;;
36839;SDS011;24406;51.640;9.566;2022-07-22T04:13:37;2.45;;;0.90;;
36839;SDS011;24406;51.640;9.566;2022-07-22T04:18:39;0.73;;;0.73;;
36839;SDS011;24406;51.640;9.566;2022-07-22T04:23:43;0.70;;;0.70;;
36839;SDS011;24406;51.640;9.566;2022-07-22T04:28:58;2.90;;;1.38;;
36839;SDS011;24406;51.640;9.566;2022-07-22T04:33:59;4.07;;;1.65;;
36839;SDS011;24406;51.640;9.566;2022-07-22T04:39:02;3.38;;;2.10;;
36839;SDS011;24406;51.640;9.566;2022-07-22T04:44:05;2.33;;;2.13;;
36839;SDS011;24406;51.640;9.566;2022-07-22T04:49:08;3.85;;;2.50;;
36839;SDS011;24406;51.640;9.566;2022-07-22T04:54:10;3.25;;;2.92;;
36839;SDS011;24406;51.640;9.566;2022-07-22T04:59:15;3.25;;;2.88;;
36839;SDS011;24406;51.640;9.566;2022-07-22T05:04:16;4.07;;;3.42;;
36839;SDS011;24406;51.640;9.566;2022-07-22T05:09:21;5.05;;;4.30;;
36839;SDS011;24406;51.640;9.566;2022-07-22T05:14:22;5.10;;;4.60;;
36839;SDS011;24406;51.640;9.566;2022-07-22T05:19:24;4.70;;;3.88;;
36839;SDS011;24406;51.640;9.566;2022-07-22T05:24:27;4.82;;;3.95;;
36839;SDS011;24406;51.640;9.566;2022-07-22T05:29:29;4.93;;;4.47;;
36839;SDS011;24406;51.640;9.566;2022-07-22T05:34:30;5.40;;;4.93;;
36839;SDS011;24406;51.640;9.566;2022-07-22T05:39:33;5.95;;;4.97;;
36839;SDS011;24406;51.640;9.566;2022-07-22T05:44:35;6.63;;;5.30;;
36839;SDS011;24406;51.640;9.566;2022-07-22T05:49:37;5.78;;;4.55;;
36839;SDS011;24406;51.640;9.566;2022-07-22T05:54:41;4.50;;;4.10;;
36839;SDS011;24406;51.640;9.566;2022-07-22T05:59:42;4.25;;;3.88;;
36839;SDS011;24406;51.640;9.566;2022-07-22T06:04:44;3.50;;;3.20;;
36839;SDS011;24406;51.640;9.566;2022-07-22T06:09:48;3.30;;;3.00;;
36839;SDS011;24406;51.640;9.566;2022-07-22T06:14:50;3.00;;;2.70;;
36839;SDS011;24406;51.640;9.566;2022-07-22T06:19:53;3.50;;;3.20;;
36839;SDS011;24406;51.640;9.566;2022-07-22T06:24:57;3.30;;;3.00;;
36839;SDS011;24406;51.640;9.566;2022-07-22T06:29:58;3.58;;;3.28;;
36839;SDS011;24406;51.640;9.566;2022-07-22T06:34:59;2.80;;;2.60;;
36839;SDS011;24406;51.640;9.566;2022-07-22T06:40:02;6.90;;;3.15;;
36839;SDS011;24406;51.640;9.566;2022-07-22T06:45:23;2.83;;;2.58;;
36839;SDS011;24406;51.640;9.566;2022-07-22T06:50:44;3.13;;;2.92;;
36839;SDS011;24406;51.640;9.566;2022-07-22T06:55:51;3.78;;;2.97;;
36839;SDS011;24406;51.640;9.566;2022-07-22T07:00:53;3.75;;;3.22;;
36839;SDS011;24406;51.640;9.566;2022-07-22T07:06:03;3.03;;;2.65;;
36839;SDS011;24406;51.640;9.566;2022-07-22T07:11:23;4.43;;;2.97;;
36839;SDS011;24406;51.640;9.566;2022-07-22T07:16:25;2.97;;;2.78;;
36839;SDS011;24406;51.640;9.566;2022-07-22T07:21:27;3.13;;;2.88;;
36839;SDS011;24406;51.640;9.566;2022-07-22T07:26:30;3.03;;;2.45;;
36839;SDS011;24406;51.640;9.566;2022-07-22T07:31:31;3.10;;;2.30;;
36839;SDS011;24406;51.640;9.566;2022-07-22T07:36:35;3.40;;;3.10;;
36839;SDS011;24406;51.640;9.566;2022-07-22T07:41:39;2.75;;;2.55;;
36839;SDS011;24406;51.640;9.566;2022-07-22T07:46:42;2.83;;;2.50;;
36839;SDS011;24406;51.640;9.566;2022-07-22T07:51:44;4.75;;;2.83;;
36839;SDS011;24406;51.640;9.566;2022-07-22T07:56:46;3.17;;;2.88;;
36839;SDS011;24406;51.640;9.566;2022-07-22T08:01:48;4.78;;;3.33;;
36839;SDS011;24406;51.640;9.566;2022-07-22T08:06:50;4.15;;;2.90;;
36839;SDS011;24406;51.640;9.566;2022-07-22T08:11:53;4.22;;;2.90;;
36839;SDS011;24406;51.640;9.566;2022-07-22T08:17:12;3.15;;;2.78;;
36839;SDS011;24406;51.640;9.566;2022-07-22T08:22:14;3.47;;;3.17;;
36839;SDS011;24406;51.640;9.566;2022-07-22T08:27:18;5.75;;;3.15;;
36839;SDS011;24406;51.640;9.566;2022-07-22T08:32:19;4.25;;;3.47;;
36839;SDS011;24406;51.640;9.566;2022-07-22T08:37:22;5.20;;;3.78;;
36839;SDS011;24406;51.640;9.566;2022-07-22T08:42:26;4.00;;;3.70;;
36839;SDS011;24406;51.640;9.566;2022-07-22T08:47:27;5.13;;;3.50;;
36839;SDS011;24406;51.640;9.566;2022-07-22T08:52:48;2.88;;;2.67;;
36839;SDS011;24406;51.640;9.566;2022-07-22T08:57:51;3.85;;;3.45;;
36839;SDS011;24406;51.640;9.566;2022-07-22T09:02:52;5.00;;;3.63;;
36839;SDS011;24406;51.640;9.566;2022-07-22T09:07:56;4.38;;;3.63;;
36839;SDS011;24406;51.640;9.566;2022-07-22T09:13:08;3.75;;;3.38;;
36839;SDS011;24406;51.640;9.566;2022-07-22T09:18:24;4.90;;;3.60;;
36839;SDS011;24406;51.640;9.566;2022-07-22T09:23:45;3.42;;;3.13;;
36839;SDS011;24406;51.640;9.566;2022-07-22T09:28:54;3.08;;;2.78;;
36839;SDS011;24406;51.640;9.566;2022-07-22T09:34:02;4.97;;;2.75;;
36839;SDS011;24406;51.640;9.566;2022-07-22T09:39:07;3.00;;;2.63;;
36839;SDS011;24406;51.640;9.566;2022-07-22T09:44:26;5.03;;;3.00;;
36839;SDS011;24406;51.640;9.566;2022-07-22T09:49:31;3.30;;;3.00;;
36839;SDS011;24406;51.640;9.566;2022-07-22T09:54:52;2.72;;;2.42;;
36839;SDS011;24406;51.640;9.566;2022-07-22T09:59:55;2.80;;;2.60;;
36839;SDS011;24406;51.640;9.566;2022-07-22T10:05:15;2.92;;;2.65;;
36839;SDS011;24406;51.640;9.566;2022-07-22T10:10:19;3.00;;;2.53;;
36839;SDS011;24406;51.640;9.566;2022-07-22T10:15:24;4.35;;;2.85;;
36839;SDS011;24406;51.640;9.566;2022-07-22T10:20:30;3.50;;;2.25;;
36839;SDS011;24406;51.640;9.566;2022-07-22T10:25:47;3.60;;;2.65;;
36839;SDS011;24406;51.640;9.566;2022-07-22T10:30:51;2.72;;;2.38;;
36839;SDS011;24406;51.640;9.566;2022-07-22T10:35:53;2.90;;;2.60;;
36839;SDS011;24406;51.640;9.566;2022-07-22T10:40:57;3.72;;;2.65;;
36839;SDS011;24406;51.640;9.566;2022-07-22T10:46:01;4.10;;;2.63;;
36839;SDS011;24406;51.640;9.566;2022-07-22T10:51:07;2.65;;;2.45;;
36839;SDS011;24406;51.640;9.566;2022-07-22T10:56:16;4.57;;;2.63;;
36839;SDS011;24406;51.640;9.566;2022-07-22T11:01:22;3.83;;;2.83;;
36839;SDS011;24406;51.640;9.566;2022-07-22T11:06:26;4.65;;;3.47;;
36839;SDS011;24406;51.640;9.566;2022-07-22T11:11:32;3.95;;;3.55;;
36839;SDS011;24406;51.640;9.566;2022-07-22T11:16:37;4.50;;;4.05;;
36839;SDS011;24406;51.640;9.566;2022-07-22T11:21:39;5.32;;;4.10;;
36839;SDS011;24406;51.640;9.566;2022-07-22T11:26:41;3.95;;;3.40;;
36839;SDS011;24406;51.640;9.566;2022-07-22T11:31:45;4.22;;;3.58;;
36839;SDS011;24406;51.640;9.566;2022-07-22T11:36:46;4.43;;;3.92;;
36839;SDS011;24406;51.640;9.566;2022-07-22T11:41:48;3.55;;;3.25;;
36839;SDS011;24406;51.640;9.566;2022-07-22T11:46:51;5.40;;;3.67;;
36839;SDS011;24406;51.640;9.566;2022-07-22T11:51:53;3.58;;;3.28;;
36839;SDS011;24406;51.640;9.566;2022-07-22T11:56:54;3.88;;;3.45;;
36839;SDS011;24406;51.640;9.566;2022-07-22T12:01:57;3.55;;;3.25;;
36839;SDS011;24406;51.640;9.566;2022-07-22T12:07:00;5.43;;;2.75;;
36839;SDS011;24406;51.640;9.566;2022-07-22T12:12:02;3.58;;;2.90;;
36839;SDS011;24406;51.640;9.566;2022-07-22T12:17:07;4.50;;;3.00;;
36839;SDS011;24406;51.640;9.566;2022-07-22T12:22:11;2.67;;;2.47;;
36839;SDS011;24406;51.640;9.566;2022-07-22T12:27:14;4.07;;;3.08;;
36839;SDS011;24406;51.640;9.566;2022-07-22T12:32:25;6.43;;;3.35;;
36839;SDS011;24406;51.640;9.566;2022-07-22T12:37:28;5.00;;;2.72;;
36839;SDS011;24406;51.640;9.566;2022-07-22T12:42:31;5.22;;;3.45;;
36839;SDS011;24406;51.640;9.566;2022-07-22T12:47:41;3.47;;;3.17;;
36839;SDS011;24406;51.640;9.566;2022-07-22T12:52:46;5.07;;;3.00;;
36839;SDS011;24406;51.640;9.566;2022-07-22T12:57:48;3.38;;;3.08;;
36839;SDS011;24406;51.640;9.566;2022-07-22T13:02:50;4.25;;;3.60;;
36839;SDS011;24406;51.640;9.566;2022-07-22T13:07:52;3.80;;;3.50;;
36839;SDS011;24406;51.640;9.566;2022-07-22T13:12:54;4.28;;;3.88;;
36839;SDS011;24406;51.640;9.566;2022-07-22T13:17:57;4.93;;;4.53;;
36839;SDS011;24406;51.640;9.566;2022-07-22T13:22:59;4.88;;;3.92;;
36839;SDS011;24406;51.640;9.566;2022-07-22T13:28:01;5.22;;;4.72;;
36839;SDS011;24406;51.640;9.566;2022-07-22T13:33:04;5.03;;;4.47;;
36839;SDS011;24406;51.640;9.566;2022-07-22T13:38:05;5.05;;;4.65;;
36839;SDS011;24406;51.640;9.566;2022-07-22T13:43:07;5.20;;;4.75;;
36839;SDS011;24406;51.640;9.566;2022-07-22T13:48:10;7.03;;;4.25;;
36839;SDS011;24406;51.640;9.566;2022-07-22T13:53:11;4.57;;;4.15;;
36839;SDS011;24406;51.640;9.566;2022-07-22T13:58:12;4.80;;;4.30;;
36839;SDS011;24406;51.640;9.566;2022-07-22T14:03:15;5.32;;;4.78;;
36839;SDS011;24406;51.640;9.566;2022-07-22T14:08:17;4.60;;;4.20;;
36839;SDS011;24406;51.640;9.566;2022-07-22T14:13:18;6.18;;;4.60;;
36839;SDS011;24406;51.640;9.566;2022-07-22T14:18:21;5.50;;;4.68;;
36839;SDS011;24406;51.640;9.566;2022-07-22T14:23:22;5.38;;;4.72;;
36839;SDS011;24406;51.640;9.566;2022-07-22T14:28:24;5.03;;;4.63;;
36839;SDS011;24406;51.640;9.566;2022-07-22T14:33:26;5.50;;;5.00;;
36839;SDS011;24406;51.640;9.566;2022-07-22T14:38:28;4.97;;;4.57;;
36839;SDS011;24406;51.640;9.566;2022-07-22T14:43:30;6.50;;;4.97;;
36839;SDS011;24406;51.640;9.566;2022-07-22T14:48:33;7.00;;;4.90;;
36839;SDS011;24406;51.640;9.566;2022-07-22T14:53:34;5.68;;;4.85;;
36839;SDS011;24406;51.640;9.566;2022-07-22T14:58:36;5.40;;;4.90;;
36839;SDS011;24406;51.640;9.566;2022-07-22T15:03:38;6.57;;;5.05;;
36839;SDS011;24406;51.640;9.566;2022-07-22T15:08:40;6.30;;;5.75;;
36839;SDS011;24406;51.640;9.566;2022-07-22T15:13:41;5.63;;;5.05;;
36839;SDS011;24406;51.640;9.566;2022-07-22T15:18:44;6.07;;;5.00;;
36839;SDS011;24406;51.640;9.566;2022-07-22T15:23:46;5.25;;;4.75;;
36839;SDS011;24406;51.640;9.566;2022-07-22T15:28:48;5.78;;;5.05;;
36839;SDS011;24406;51.640;9.566;2022-07-22T15:33:53;5.50;;;5.00;;
36839;SDS011;24406;51.640;9.566;2022-07-22T15:38:54;6.45;;;4.75;;
36839;SDS011;24406;51.640;9.566;2022-07-22T15:43:56;5.38;;;4.97;;
36839;SDS011;24406;51.640;9.566;2022-07-22T15:48:58;9.07;;;5.07;;
36839;SDS011;24406;51.640;9.566;2022-07-22T15:54:00;5.32;;;4.70;;
36839;SDS011;24406;51.640;9.566;2022-07-22T15:59:01;5.47;;;4.97;;
36839;SDS011;24406;51.640;9.566;2022-07-22T16:04:22;11.00;;;5.28;;
36839;SDS011;24406;51.640;9.566;2022-07-22T16:09:23;5.40;;;5.00;;
36839;SDS011;24406;51.640;9.566;2022-07-22T16:14:24;5.75;;;5.15;;
36839;SDS011;24406;51.640;9.566;2022-07-22T16:19:27;5.97;;;5.40;;
36839;SDS011;24406;51.640;9.566;2022-07-22T16:24:29;6.00;;;4.90;;
36839;SDS011;24406;51.640;9.566;2022-07-22T16:29:30;5.82;;;5.07;;
36839;SDS011;24406;51.640;9.566;2022-07-22T16:34:33;7.85;;;5.32;;
36839;SDS011;24406;51.640;9.566;2022-07-22T16:39:34;6.28;;;5.68;;
36839;SDS011;24406;51.640;9.566;2022-07-22T16:44:36;6.63;;;5.25;;
36839;SDS011;24406;51.640;9.566;2022-07-22T16:49:39;6.93;;;5.60;;
36839;SDS011;24406;51.640;9.566;2022-07-22T16:54:41;8.13;;;5.43;;
36839;SDS011;24406;51.640;9.566;2022-07-22T16:59:42;6.82;;;5.30;;
36839;SDS011;24406;51.640;9.566;2022-07-22T17:04:45;6.90;;;5.40;;
36839;SDS011;24406;51.640;9.566;2022-07-22T17:09:46;6.72;;;5.28;;
36839;SDS011;24406;51.640;9.566;2022-07-22T17:14:48;6.78;;;5.95;;
36839;SDS011;24406;51.640;9.566;2022-07-22T17:19:50;6.80;;;6.10;;
36839;SDS011;24406;51.640;9.566;2022-07-22T17:24:52;7.00;;;6.25;;
36839;SDS011;24406;51.640;9.566;2022-07-22T17:29:53;7.63;;;6.93;;
36839;SDS011;24406;51.640;9.566;2022-07-22T17:34:56;6.97;;;6.45;;
36839;SDS011;24406;51.640;9.566;2022-07-22T17:39:57;7.18;;;6.50;;
36839;SDS011;24406;51.640;9.566;2022-07-22T17:44:59;7.60;;;6.63;;
36839;SDS011;24406;51.640;9.566;2022-07-22T17:50:02;8.10;;;7.30;;
36839;SDS011;24406;51.640;9.566;2022-07-22T17:55:05;8.57;;;7.70;;
36839;SDS011;24406;51.640;9.566;2022-07-22T18:00:07;7.28;;;6.57;;
36839;SDS011;24406;51.640;9.566;2022-07-22T18:05:11;7.22;;;6.45;;
36839;SDS011;24406;51.640;9.566;2022-07-22T18:10:12;7.63;;;6.82;;
36839;SDS011;24406;51.640;9.566;2022-07-22T18:15:14;8.52;;;6.78;;
36839;SDS011;24406;51.640;9.566;2022-07-22T18:20:16;8.63;;;7.93;;
36839;SDS011;24406;51.640;9.566;2022-07-22T18:25:18;8.60;;;7.80;;
36839;SDS011;24406;51.640;9.566;2022-07-22T18:30:19;7.60;;;6.88;;
36839;SDS011;24406;51.640;9.566;2022-07-22T18:35:22;7.80;;;6.80;;
36839;SDS011;24406;51.640;9.566;2022-07-22T18:40:23;8.43;;;7.55;;
36839;SDS011;24406;51.640;9.566;2022-07-22T18:45:26;12.50;;;6.78;;
36839;SDS011;24406;51.640;9.566;2022-07-22T18:50:29;7.93;;;6.78;;
36839;SDS011;24406;51.640;9.566;2022-07-22T18:55:30;7.60;;;6.75;;
36839;SDS011;24406;51.640;9.566;2022-07-22T19:00:31;10.75;;;7.68;;
36839;SDS011;24406;51.640;9.566;2022-07-22T19:05:34;10.75;;;7.55;;
36839;SDS011;24406;51.640;9.566;2022-07-22T19:10:37;11.48;;;6.95;;
36839;SDS011;24406;51.640;9.566;2022-07-22T19:15:39;10.02;;;6.68;;
36839;SDS011;24406;51.640;9.566;2022-07-22T19:20:42;8.50;;;7.60;;
36839;SDS011;24406;51.640;9.566;2022-07-22T19:25:44;7.97;;;7.03;;
36839;SDS011;24406;51.640;9.566;2022-07-22T19:30:45;9.32;;;7.55;;
36839;SDS011;24406;51.640;9.566;2022-07-22T19:35:48;7.95;;;7.15;;
36839;SDS011;24406;51.640;9.566;2022-07-22T19:40:49;7.60;;;6.82;;
36839;SDS011;24406;51.640;9.566;2022-07-22T19:45:51;10.10;;;7.20;;
36839;SDS011;24406;51.640;9.566;2022-07-22T19:50:54;11.77;;;6.95;;
36839;SDS011;24406;51.640;9.566;2022-07-22T19:55:55;7.13;;;6.43;;
36839;SDS011;24406;51.640;9.566;2022-07-22T20:00:57;10.50;;;7.13;;
36839;SDS011;24406;51.640;9.566;2022-07-22T20:06:00;8.50;;;7.70;;
36839;SDS011;24406;51.640;9.566;2022-07-22T20:11:04;8.13;;;7.15;;
36839;SDS011;24406;51.640;9.566;2022-07-22T20:16:05;9.02;;;7.78;;
36839;SDS011;24406;51.640;9.566;2022-07-22T20:21:08;8.43;;;7.50;;
36839;SDS011;24406;51.640;9.566;2022-07-22T20:26:10;11.25;;;7.18;;
36839;SDS011;24406;51.640;9.566;2022-07-22T20:31:11;7.63;;;6.85;;
36839;SDS011;24406;51.640;9.566;2022-07-22T20:36:14;9.27;;;7.63;;
36839;SDS011;24406;51.640;9.566;2022-07-22T20:41:15;8.73;;;7.68;;
36839;SDS011;24406;51.640;9.566;2022-07-22T20:46:16;11.40;;;8.88;;
36839;SDS011;24406;51.640;9.566;2022-07-22T20:51:19;10.32;;;8.90;;
36839;SDS011;24406;51.640;9.566;2022-07-22T20:56:22;11.43;;;8.52;;
36839;SDS011;24406;51.640;9.566;2022-07-22T21:01:23;8.82;;;7.93;;
36839;SDS011;24406;51.640;9.566;2022-07-22T21:06:26;9.80;;;8.52;;
36839;SDS011;24406;51.640;9.566;2022-07-22T21:11:28;9.80;;;8.30;;
36839;SDS011;24406;51.640;9.566;2022-07-22T21:16:30;11.55;;;8.57;;
36839;SDS011;24406;51.640;9.566;2022-07-22T21:21:32;10.02;;;8.82;;
36839;SDS011;24406;51.640;9.566;2022-07-22T21:26:34;10.02;;;8.45;;
36839;SDS011;24406;51.640;9.566;2022-07-22T21:31:35;10.00;;;8.02;;
36839;SDS011;24406;51.640;9.566;2022-07-22T21:36:38;8.73;;;7.93;;
36839;SDS011;24406;51.640;9.566;2022-07-22T21:41:40;9.52;;;8.52;;
36839;SDS011;24406;51.640;9.566;2022-07-22T21:46:41;11.55;;;8.57;;
36839;SDS011;24406;51.640;9.566;2022-07-22T21:51:44;15.57;;;9.40;;
36839;SDS011;24406;51.640;9.566;2022-07-22T21:56:45;9.85;;;8.95;;
36839;SDS011;24406;51.640;9.566;2022-07-22T22:01:58;14.23;;;8.82;;
36839;SDS011;24406;51.640;9.566;2022-07-22T22:07:02;12.35;;;8.93;;
36839;SDS011;24406;51.640;9.566;2022-07-22T22:12:03;8.80;;;8.00;;
36839;SDS011;24406;51.640;9.566;2022-07-22T22:17:05;11.13;;;8.90;;
36839;SDS011;24406;51.640;9.566;2022-07-22T22:22:08;12.52;;;9.70;;
36839;SDS011;24406;51.640;9.566;2022-07-22T22:27:09;10.65;;;9.13;;
36839;SDS011;24406;51.640;9.566;2022-07-22T22:32:11;11.25;;;10.05;;
36839;SDS011;24406;51.640;9.566;2022-07-22T22:37:14;12.30;;;8.93;;
36839;SDS011;24406;51.640;9.566;2022-07-22T22:42:15;11.15;;;9.48;;
36839;SDS011;24406;51.640;9.566;2022-07-22T22:47:16;11.07;;;9.18;;
36839;SDS011;24406;51.640;9.566;2022-07-22T22:52:20;11.75;;;10.55;;
36839;SDS011;24406;51.640;9.566;2022-07-22T22:57:22;19.45;;;11.40;;
36839;SDS011;24406;51.640;9.566;2022-07-22T23:02:23;11.07;;;9.98;;
36839;SDS011;24406;51.640;9.566;2022-07-22T23:07:26;12.43;;;9.70;;
36839;SDS011;24406;51.640;9.566;2022-07-22T23:12:27;10.52;;;9.43;;
36839;SDS011;24406;51.640;9.566;2022-07-22T23:17:29;11.13;;;9.93;;
36839;SDS011;24406;51.640;9.566;2022-07-22T23:22:31;12.88;;;10.70;;
36839;SDS011;24406;51.640;9.566;2022-07-22T23:27:33;16.83;;;11.15;;
36839;SDS011;24406;51.640;9.566;2022-07-22T23:32:36;12.15;;;10.95;;
36839;SDS011;24406;51.640;9.566;2022-07-22T23:37:39;13.23;;;10.82;;
36839;SDS011;24406;51.640;9.566;2022-07-22T23:42:40;13.90;;;9.75;;
36839;SDS011;24406;51.640;9.566;2022-07-22T23:47:42;11.52;;;10.35;;
36839;SDS011;24406;51.640;9.566;2022-07-22T23:52:44;11.95;;;10.75;;
36839;SDS011;24406;51.640;9.566;2022-07-22T23:57:46;11.52;;;10.30;;
